Time;durP1;ratioP1;P1;durP2;ratioP2;P2;SDS_P1;SDS_P2;PMS_P1;PMS_P2;Temp;Humidity;BMP_temperature;BMP_pressure;BME280_temperature;BME280_humidity;BME280_pressure;Samples;Min_cycle;Max_cycle;Signal;HPM_P1;HPM_P2
2023/05/27 00:01:25;;;;;;;6.50;2.50;;;13.90;91.30;;;;;;5058505;28;20193;-70
2023/05/27 00:04:08;;;;;;;5.38;2.60;;;13.80;91.60;;;;;;5049667;28;20462;-70
2023/05/27 00:06:36;;;;;;;6.13;2.55;;;13.80;92.50;;;;;;5057639;28;20193;-69
2023/05/27 00:09:04;;;;;;;5.32;2.05;;;13.80;91.40;;;;;;5057898;28;20212;-70
2023/05/27 00:11:30;;;;;;;5.07;2.20;;;13.70;91.60;;;;;;5042069;28;20221;-70
2023/05/27 00:13:58;;;;;;;4.53;2.42;;;13.60;91.70;;;;;;5053550;28;20212;-68
2023/05/27 00:16:25;;;;;;;5.35;2.40;;;13.60;92.40;;;;;;5058015;28;20267;-69
2023/05/27 00:18:58;;;;;;;5.55;2.40;;;13.60;92.40;;;;;;5057748;28;20260;-72
2023/05/27 00:21:30;;;;;;;5.57;2.50;;;13.60;92.50;;;;;;5043367;28;20308;-69
2023/05/27 00:23:58;;;;;;;7.03;2.25;;;13.50;93.50;;;;;;5050694;28;20173;-69
2023/05/27 00:26:35;;;;;;;7.93;2.22;;;13.60;93.60;;;;;;5039670;28;20237;-70
2023/05/27 00:29:01;;;;;;;6.22;2.55;;;13.40;93.60;;;;;;5045389;28;20177;-69
2023/05/27 00:31:36;;;;;;;7.82;2.40;;;13.40;93.00;;;;;;5057634;28;20245;-70
2023/05/27 00:34:02;;;;;;;4.45;2.22;;;13.40;93.70;;;;;;5056803;28;20199;-69
2023/05/27 00:36:27;;;;;;;5.03;2.38;;;13.30;93.20;;;;;;5057534;28;20170;-70
2023/05/27 00:38:53;;;;;;;4.72;2.10;;;13.30;93.40;;;;;;5057254;28;20165;-69
2023/05/27 00:41:19;;;;;;;5.47;2.28;;;13.30;93.60;;;;;;5053718;28;20265;-69
2023/05/27 00:43:45;;;;;;;5.63;2.65;;;13.30;93.70;;;;;;5052562;28;20201;-68
2023/05/27 00:46:14;;;;;;;6.10;2.20;;;13.20;93.80;;;;;;5057199;28;20188;-70
2023/05/27 00:48:43;;;;;;;4.80;2.40;;;13.20;94.40;;;;;;5055638;28;20200;-69
2023/05/27 00:51:08;;;;;;;4.53;2.03;;;13.20;94.10;;;;;;5039792;28;20190;-69
2023/05/27 00:53:42;;;;;;;4.70;2.10;;;13.20;94.20;;;;;;5056804;28;20211;-69
2023/05/27 00:56:12;;;;;;;5.25;2.00;;;13.20;94.90;;;;;;5056567;28;20177;-70
2023/05/27 00:58:41;;;;;;;5.70;2.17;;;13.20;94.60;;;;;;5056591;28;20211;-70
2023/05/27 01:01:09;;;;;;;4.38;1.90;;;13.20;94.60;;;;;;5056690;28;20186;-68
2023/05/27 01:03:35;;;;;;;5.35;2.08;;;13.20;94.60;;;;;;5055589;28;20206;-69
2023/05/27 01:06:21;;;;;;;3.88;2.05;;;13.10;94.70;;;;;;5053414;28;20186;-68
2023/05/27 01:09:01;;;;;;;5.85;2.30;;;13.10;96.00;;;;;;5036397;28;20216;-68
2023/05/27 01:11:38;;;;;;;5.88;2.30;;;13.10;94.90;;;;;;5055578;28;20200;-69
2023/05/27 01:14:10;;;;;;;4.95;2.40;;;13.00;95.90;;;;;;5056679;28;20252;-70
2023/05/27 01:16:43;;;;;;;4.10;2.22;;;13.00;95.80;;;;;;5056866;28;20174;-72
2023/05/27 01:19:14;;;;;;;5.85;2.28;;;13.00;96.00;;;;;;5056589;28;20231;-68
2023/05/27 01:21:44;;;;;;;6.72;2.63;;;13.00;96.10;;;;;;5052747;28;20262;-70
2023/05/27 01:24:10;;;;;;;6.75;2.10;;;12.90;95.80;;;;;;5042819;28;20184;-68
2023/05/27 01:26:42;;;;;;;5.18;1.98;;;12.90;95.80;;;;;;5058278;28;20196;-69
2023/05/27 01:29:11;;;;;;;4.70;2.25;;;12.90;96.40;;;;;;5056259;28;20263;-69
2023/05/27 01:32:07;;;;;;;5.10;2.17;;;12.80;96.10;;;;;;5052703;28;20162;-69
2023/05/27 01:34:51;;;;;;;4.38;2.10;;;12.80;97.70;;;;;;5048997;28;20175;-70
2023/05/27 01:37:20;;;;;;;4.15;2.10;;;12.80;97.50;;;;;;5064031;28;20176;-69
2023/05/27 01:39:47;;;;;;;5.20;2.10;;;12.80;96.80;;;;;;5056612;28;20202;-69
2023/05/27 01:42:22;;;;;;;4.63;2.15;;;12.70;96.70;;;;;;5047997;28;20204;-70
2023/05/27 01:44:49;;;;;;;4.93;2.25;;;12.70;97.50;;;;;;5056866;28;20275;-69
2023/05/27 01:47:17;;;;;;;5.05;2.53;;;12.70;96.80;;;;;;5053422;28;20293;-70
2023/05/27 01:49:47;;;;;;;5.47;2.40;;;12.60;97.30;;;;;;5056622;28;20201;-69
2023/05/27 01:52:13;;;;;;;5.88;2.28;;;12.60;97.40;;;;;;5055844;28;20254;-68
2023/05/27 01:54:41;;;;;;;3.75;2.17;;;12.60;97.10;;;;;;5056213;28;20247;-68
2023/05/27 01:57:09;;;;;;;5.93;2.63;;;12.50;97.20;;;;;;5056116;28;20203;-69
2023/05/27 01:59:35;;;;;;;4.95;2.17;;;12.50;97.40;;;;;;5055566;28;20209;-68
2023/05/27 02:02:00;;;;;;;6.95;2.40;;;12.50;97.50;;;;;;5055917;28;20228;-70
2023/05/27 02:04:26;;;;;;;5.07;2.40;;;12.50;97.60;;;;;;5055656;28;20246;-70
2023/05/27 02:06:52;;;;;;;5.63;2.55;;;12.50;97.70;;;;;;5055621;28;20185;-69
2023/05/27 02:09:18;;;;;;;4.43;2.47;;;12.50;97.90;;;;;;5048836;28;20268;-70
2023/05/27 02:11:46;;;;;;;5.50;2.60;;;12.40;98.00;;;;;;5041277;28;20264;-69
2023/05/27 02:14:13;;;;;;;4.65;2.40;;;12.40;98.50;;;;;;5038837;28;20190;-70
2023/05/27 02:16:39;;;;;;;5.03;2.70;;;12.40;98.30;;;;;;5041695;28;20204;-69
2023/05/27 02:19:05;;;;;;;8.18;2.70;;;12.30;98.40;;;;;;5055667;28;20173;-71
2023/05/27 02:21:33;;;;;;;5.40;2.80;;;12.30;98.60;;;;;;5054808;28;20196;-68
2023/05/27 02:23:59;;;;;;;5.93;2.25;;;12.20;99.00;;;;;;5055300;28;20216;-69
2023/05/27 02:26:24;;;;;;;3.78;2.20;;;12.20;98.70;;;;;;5055445;28;20173;-68
2023/05/27 02:28:55;;;;;;;5.95;2.88;;;12.10;98.80;;;;;;5054911;28;20201;-68
2023/05/27 02:31:21;;;;;;;5.40;2.33;;;12.10;99.40;;;;;;5055360;28;20193;-71
2023/05/27 02:33:47;;;;;;;5.63;2.17;;;12.00;99.20;;;;;;5055033;28;20315;-69
2023/05/27 02:36:15;;;;;;;4.05;2.17;;;12.00;99.30;;;;;;5055055;28;20226;-68
2023/05/27 02:38:44;;;;;;;5.28;2.60;;;12.00;99.70;;;;;;5042851;28;20185;-68
2023/05/27 02:41:12;;;;;;;6.15;2.38;;;12.20;99.90;;;;;;5051561;28;20173;-68
2023/05/27 02:43:40;;;;;;;6.05;2.70;;;12.00;99.90;;;;;;5054872;28;20170;-70
2023/05/27 02:46:06;;;;;;;5.38;2.50;;;11.90;99.90;;;;;;5055088;28;20173;-67
2023/05/27 02:48:34;;;;;;;4.80;2.30;;;11.90;99.90;;;;;;5054875;28;20234;-68
2023/05/27 02:50:59;;;;;;;6.13;2.38;;;11.90;99.90;;;;;;5054781;28;20304;-68
2023/05/27 02:53:25;;;;;;;4.15;2.20;;;11.90;99.90;;;;;;5051664;28;20224;-69
2023/05/27 02:55:51;;;;;;;7.65;2.45;;;11.80;99.90;;;;;;5040096;28;20201;-69
2023/05/27 02:58:17;;;;;;;6.32;2.45;;;11.80;99.90;;;;;;5054802;28;20173;-69
2023/05/27 03:00:43;;;;;;;5.75;2.30;;;11.70;99.90;;;;;;5055029;28;20284;-69
2023/05/27 03:03:08;;;;;;;6.43;2.70;;;11.70;99.90;;;;;;5041613;28;20272;-69
2023/05/27 03:05:38;;;;;;;4.30;2.28;;;11.70;99.90;;;;;;5052417;28;20196;-68
2023/05/27 03:08:05;;;;;;;5.47;2.50;;;11.70;99.90;;;;;;5053932;28;20212;-68
2023/05/27 03:10:34;;;;;;;4.75;2.40;;;11.60;99.90;;;;;;5054490;28;20271;-67
2023/05/27 03:13:00;;;;;;;6.28;2.60;;;11.60;99.90;;;;;;5055155;28;20180;-68
2023/05/27 03:15:29;;;;;;;7.32;2.53;;;11.60;99.90;;;;;;5054857;28;20176;-68
2023/05/27 03:17:56;;;;;;;5.68;2.85;;;11.50;99.90;;;;;;5054532;28;20323;-68
2023/05/27 03:20:21;;;;;;;7.13;2.30;;;11.50;99.90;;;;;;5045994;28;20190;-69
2023/05/27 03:22:49;;;;;;;5.60;2.75;;;11.50;99.90;;;;;;5047545;28;20208;-69
2023/05/27 03:25:17;;;;;;;4.80;2.60;;;11.50;99.90;;;;;;5053224;28;20189;-69
2023/05/27 03:27:45;;;;;;;5.60;2.58;;;11.40;99.90;;;;;;5054464;28;20236;-69
2023/05/27 03:30:11;;;;;;;6.05;2.65;;;11.40;99.90;;;;;;5054640;28;20208;-68
2023/05/27 03:32:38;;;;;;;7.37;2.93;;;11.40;99.90;;;;;;5056071;28;20211;-70
2023/05/27 03:35:04;;;;;;;5.47;2.80;;;11.30;99.90;;;;;;5058615;28;20172;-69
2023/05/27 03:37:32;;;;;;;5.07;2.73;;;11.30;99.90;;;;;;5049885;28;20201;-67
2023/05/27 03:40:00;;;;;;;5.70;2.73;;;11.30;99.90;;;;;;5045808;28;20244;-67
2023/05/27 03:42:25;;;;;;;4.65;2.53;;;11.30;99.90;;;;;;5058242;28;20260;-69
2023/05/27 03:44:53;;;;;;;5.00;2.83;;;11.20;99.90;;;;;;5058303;28;20200;-68
2023/05/27 03:47:21;;;;;;;7.27;2.83;;;11.20;99.90;;;;;;5056496;28;20224;-66
2023/05/27 03:49:47;;;;;;;4.87;2.83;;;11.20;99.90;;;;;;5059133;28;20205;-65
2023/05/27 03:52:15;;;;;;;6.28;3.00;;;11.20;99.90;;;;;;5058380;28;20181;-66
2023/05/27 03:54:43;;;;;;;6.97;2.92;;;11.10;99.90;;;;;;5049787;28;20204;-65
2023/05/27 03:57:14;;;;;;;4.27;2.27;;;11.10;99.90;;;;;;5058169;28;20469;-65
2023/05/27 03:59:40;;;;;;;5.43;2.80;;;11.10;99.90;;;;;;5058156;28;20248;-65
2023/05/27 04:02:08;;;;;;;5.07;2.53;;;11.10;99.90;;;;;;5057841;28;20208;-64
2023/05/27 04:04:33;;;;;;;4.93;2.70;;;11.00;99.90;;;;;;5057904;28;20226;-67
2023/05/27 04:07:01;;;;;;;5.03;2.60;;;11.00;99.90;;;;;;5045280;28;20194;-65
2023/05/27 04:09:27;;;;;;;8.18;2.85;;;11.00;99.90;;;;;;5047758;28;20227;-64
2023/05/27 04:11:56;;;;;;;6.60;2.80;;;11.00;99.90;;;;;;5074768;28;20170;-64
2023/05/27 04:14:22;;;;;;;5.13;2.83;;;11.00;99.90;;;;;;5058024;28;20201;-65
2023/05/27 04:16:50;;;;;;;8.90;3.07;;;11.00;99.90;;;;;;5057685;28;20177;-65
2023/05/27 04:19:18;;;;;;;7.03;3.13;;;11.00;99.90;;;;;;5057380;28;20193;-64
2023/05/27 04:21:49;;;;;;;6.27;3.00;;;11.10;99.90;;;;;;5054772;28;20268;-65
2023/05/27 04:24:19;;;;;;;8.77;3.40;;;11.00;99.90;;;;;;5045074;28;20181;-65
2023/05/27 04:26:45;;;;;;;13.03;8.30;;;11.10;99.90;;;;;;5058157;28;20223;-65
2023/05/27 04:29:11;;;;;;;12.63;6.07;;;11.10;99.90;;;;;;5057635;28;20212;-65
2023/05/27 04:31:37;;;;;;;8.95;5.15;;;11.00;99.90;;;;;;5057416;28;20231;-64
2023/05/27 04:34:05;;;;;;;6.97;4.07;;;11.10;99.90;;;;;;5057742;28;20181;-63
2023/05/27 04:36:36;;;;;;;6.95;3.38;;;11.10;99.90;;;;;;5049045;28;20231;-65
2023/05/27 04:39:03;;;;;;;8.03;3.10;;;11.10;99.90;;;;;;5055010;28;20200;-65
2023/05/27 04:41:32;;;;;;;6.87;3.13;;;11.10;99.90;;;;;;5057479;28;20255;-65
2023/05/27 04:44:00;;;;;;;4.50;2.90;;;11.20;99.90;;;;;;5053478;28;20269;-65
2023/05/27 04:46:26;;;;;;;6.03;3.22;;;11.20;99.90;;;;;;5055766;28;20564;-65
2023/05/27 04:48:57;;;;;;;7.68;3.38;;;11.30;99.90;;;;;;5057366;28;20190;-65
2023/05/27 04:51:23;;;;;;;5.53;3.10;;;11.30;99.90;;;;;;5056997;28;20227;-65
2023/05/27 04:53:51;;;;;;;5.88;3.10;;;11.30;99.90;;;;;;5057431;28;20173;-65
2023/05/27 04:56:17;;;;;;;5.97;2.80;;;11.30;99.90;;;;;;5057245;28;20185;-65
2023/05/27 04:58:49;;;;;;;6.63;2.55;;;11.40;99.90;;;;;;5057036;28;20174;-65
2023/05/27 05:01:17;;;;;;;3.80;2.40;;;11.40;99.90;;;;;;5053701;28;20186;-65
2023/05/27 05:04:02;;;;;;;5.50;2.60;;;11.40;99.90;;;;;;5036899;28;20241;-65
2023/05/27 05:06:30;;;;;;;6.55;2.75;;;11.40;99.90;;;;;;5051871;28;20188;-64
2023/05/27 05:08:58;;;;;;;5.75;2.72;;;11.50;99.90;;;;;;5056048;28;20274;-65
2023/05/27 05:11:23;;;;;;;6.15;2.80;;;11.50;99.90;;;;;;5056638;28;20201;-65
2023/05/27 05:13:49;;;;;;;6.45;2.65;;;11.60;99.90;;;;;;5064851;28;20208;-65
2023/05/27 05:16:15;;;;;;;4.45;2.92;;;11.70;99.90;;;;;;5056341;28;20244;-65
2023/05/27 05:18:40;;;;;;;7.57;3.10;;;11.70;99.90;;;;;;5056377;28;20197;-65
2023/05/27 05:21:06;;;;;;;6.55;3.00;;;11.70;99.90;;;;;;5056548;28;20169;-65
2023/05/27 05:23:32;;;;;;;6.38;3.00;;;11.70;99.90;;;;;;5052968;28;20206;-64
2023/05/27 05:26:05;;;;;;;6.03;2.70;;;11.80;99.90;;;;;;5049440;28;20181;-65
2023/05/27 05:28:34;;;;;;;7.13;2.92;;;11.80;99.90;;;;;;5051242;28;20213;-65
2023/05/27 05:31:02;;;;;;;6.47;3.08;;;11.90;99.90;;;;;;5053773;28;20207;-65
2023/05/27 05:33:30;;;;;;;5.25;2.90;;;11.90;99.90;;;;;;5056095;28;20165;-65
2023/05/27 05:35:58;;;;;;;5.35;2.60;;;12.00;99.90;;;;;;5056853;28;20172;-65
2023/05/27 05:38:24;;;;;;;7.40;4.15;;;12.10;99.90;;;;;;5055982;28;20212;-66
2023/05/27 05:40:52;;;;;;;7.28;4.57;;;12.10;99.90;;;;;;5056039;28;20209;-65
2023/05/27 05:43:20;;;;;;;5.10;3.28;;;12.20;99.90;;;;;;5052642;28;20174;-67
2023/05/27 05:45:46;;;;;;;5.82;3.35;;;12.30;99.90;;;;;;5046735;28;20292;-66
2023/05/27 05:48:14;;;;;;;7.28;3.28;;;12.20;99.90;;;;;;5035852;28;20292;-65
2023/05/27 05:50:39;;;;;;;8.75;3.72;;;12.30;99.90;;;;;;5052447;28;20304;-66
2023/05/27 05:53:05;;;;;;;7.88;3.55;;;12.40;99.90;;;;;;5055610;28;20244;-66
2023/05/27 05:55:31;;;;;;;5.20;3.00;;;12.40;99.90;;;;;;5055727;28;20216;-66
2023/05/27 05:57:56;;;;;;;6.50;3.53;;;12.50;99.90;;;;;;5055905;28;20177;-64
2023/05/27 06:00:24;;;;;;;7.30;3.28;;;12.50;99.90;;;;;;5038415;28;20305;-66
2023/05/27 06:02:54;;;;;;;5.93;2.78;;;12.60;99.90;;;;;;5051003;28;20177;-66
2023/05/27 06:05:25;;;;;;;5.75;2.50;;;12.60;99.90;;;;;;5054221;28;20177;-65
2023/05/27 06:07:54;;;;;;;6.95;3.10;;;12.70;99.90;;;;;;5039080;28;20177;-65
2023/05/27 06:10:20;;;;;;;7.18;2.88;;;12.80;99.90;;;;;;5041098;28;20198;-65
2023/05/27 06:12:45;;;;;;;6.18;2.78;;;12.90;99.90;;;;;;5049289;28;20260;-66
2023/05/27 06:15:16;;;;;;;5.90;2.83;;;12.90;99.90;;;;;;5046857;28;20198;-65
2023/05/27 06:17:41;;;;;;;5.90;2.63;;;13.00;99.90;;;;;;5055297;28;20244;-65
2023/05/27 06:20:10;;;;;;;5.97;2.58;;;13.10;99.90;;;;;;5043592;28;20224;-66
2023/05/27 06:22:37;;;;;;;5.60;2.92;;;13.10;99.90;;;;;;5042342;28;20330;-66
2023/05/27 06:25:03;;;;;;;12.05;7.13;;;13.20;99.90;;;;;;5055152;28;20192;-66
2023/05/27 06:27:31;;;;;;;8.85;4.63;;;13.30;99.90;;;;;;5054778;28;20200;-65
2023/05/27 06:29:59;;;;;;;8.52;4.03;;;13.30;99.90;;;;;;5054661;28;20200;-66
2023/05/27 06:32:25;;;;;;;7.00;3.35;;;13.40;99.90;;;;;;5054717;28;20189;-65
2023/05/27 06:34:53;;;;;;;7.40;3.50;;;13.50;99.90;;;;;;5054833;28;20177;-66
2023/05/27 06:37:19;;;;;;;4.40;2.72;;;13.50;99.90;;;;;;5039036;28;20201;-64
2023/05/27 06:39:45;;;;;;;7.78;2.78;;;13.50;99.90;;;;;;5054854;28;20177;-66
2023/05/27 06:42:10;;;;;;;8.43;3.00;;;13.60;99.90;;;;;;5051617;28;20182;-65
2023/05/27 06:44:36;;;;;;;4.75;2.58;;;13.70;99.90;;;;;;5043820;28;20169;-66
2023/05/27 06:47:04;;;;;;;7.18;3.05;;;13.80;99.90;;;;;;5047948;28;20301;-64
2023/05/27 06:49:32;;;;;;;6.25;2.55;;;13.80;99.90;;;;;;5054721;28;20193;-65
2023/05/27 06:52:00;;;;;;;4.72;2.42;;;13.90;99.90;;;;;;5048791;28;20178;-66
2023/05/27 06:54:28;;;;;;;6.85;2.65;;;13.90;99.90;;;;;;5043614;28;20264;-65
2023/05/27 06:56:54;;;;;;;7.38;2.97;;;14.00;99.90;;;;;;5054607;28;20173;-67
2023/05/27 06:59:19;;;;;;;7.85;3.20;;;14.00;99.90;;;;;;5054175;28;20262;-66
2023/05/27 07:01:47;;;;;;;9.13;3.35;;;14.00;99.90;;;;;;5054673;28;20219;-66
2023/05/27 07:04:13;;;;;;;11.50;4.93;;;14.10;99.90;;;;;;5053640;28;20228;-66
2023/05/27 07:06:38;;;;;;;9.30;5.78;;;14.20;99.90;;;;;;5048347;28;20173;-67
2023/05/27 07:09:09;;;;;;;8.50;4.40;;;14.20;99.90;;;;;;5055482;28;20191;-66
2023/05/27 07:11:37;;;;;;;7.20;3.67;;;14.30;99.90;;;;;;5055226;28;20185;-66
2023/05/27 07:14:03;;;;;;;8.30;3.58;;;14.30;99.90;;;;;;5054588;28;20193;-66
2023/05/27 07:16:28;;;;;;;8.38;3.25;;;14.40;99.90;;;;;;5055756;28;20171;-66
2023/05/27 07:18:54;;;;;;;7.07;3.20;;;14.50;99.90;;;;;;5054368;28;20173;-66
2023/05/27 07:21:20;;;;;;;5.07;2.90;;;14.50;99.90;;;;;;5054844;28;20185;-66
2023/05/27 07:23:45;;;;;;;7.65;3.22;;;14.50;99.90;;;;;;5054986;28;20185;-66
2023/05/27 07:26:13;;;;;;;6.55;3.10;;;14.60;99.90;;;;;;5050570;28;20201;-67
2023/05/27 07:28:41;;;;;;;6.50;2.90;;;14.60;99.90;;;;;;5039169;28;20208;-66
2023/05/27 07:31:07;;;;;;;8.43;3.10;;;14.70;99.90;;;;;;5039923;28;20271;-66
2023/05/27 07:33:32;;;;;;;6.93;3.08;;;14.70;99.90;;;;;;5045759;28;20177;-67
2023/05/27 07:36:00;;;;;;;8.15;3.17;;;14.80;99.90;;;;;;5054954;28;20198;-66
2023/05/27 07:38:26;;;;;;;7.88;3.33;;;14.90;99.90;;;;;;5054342;28;20254;-67
2023/05/27 07:40:54;;;;;;;5.70;3.10;;;14.90;99.90;;;;;;5054208;28;20205;-65
2023/05/27 07:43:22;;;;;;;6.60;2.90;;;15.00;99.90;;;;;;5054126;28;20181;-66
2023/05/27 07:45:50;;;;;;;7.15;2.60;;;15.10;99.90;;;;;;5037318;28;20234;-67
2023/05/27 07:48:18;;;;;;;8.27;3.08;;;15.20;99.90;;;;;;5053216;28;20177;-66
2023/05/27 07:50:45;;;;;;;7.20;3.53;;;15.20;99.90;;;;;;5054321;28;20204;-67
2023/05/27 07:53:11;;;;;;;7.38;3.30;;;15.30;99.90;;;;;;5054693;28;20169;-66
2023/05/27 07:55:37;;;;;;;7.78;3.47;;;15.40;99.90;;;;;;5054517;28;20198;-66
2023/05/27 07:58:02;;;;;;;12.45;3.40;;;15.50;99.90;;;;;;5052158;28;20174;-65
2023/05/27 08:00:28;;;;;;;4.85;2.72;;;15.50;99.90;;;;;;5054286;28;20176;-66
2023/05/27 08:02:53;;;;;;;5.25;2.63;;;15.60;99.90;;;;;;5046320;28;20205;-66
2023/05/27 08:05:21;;;;;;;7.00;3.03;;;15.60;99.90;;;;;;5053894;28;20177;-67
2023/05/27 08:07:49;;;;;;;6.55;2.25;;;15.70;99.90;;;;;;5054328;28;20197;-67
2023/05/27 08:10:17;;;;;;;7.38;2.78;;;15.80;99.90;;;;;;5054142;28;20205;-66
2023/05/27 08:12:43;;;;;;;6.78;2.65;;;15.90;99.90;;;;;;5053505;28;20204;-66
2023/05/27 08:15:10;;;;;;;6.63;2.67;;;15.90;99.90;;;;;;5055449;28;20236;-67
2023/05/27 08:17:36;;;;;;;7.30;3.00;;;16.00;99.90;;;;;;5053928;28;20193;-67
2023/05/27 08:20:05;;;;;;;6.63;2.55;;;16.10;99.90;;;;;;5056812;28;20258;-67
2023/05/27 08:22:32;;;;;;;6.40;2.90;;;16.20;99.90;;;;;;5057831;28;20183;-66
2023/05/27 08:24:57;;;;;;;7.85;3.00;;;16.30;99.90;;;;;;5056905;28;20227;-66
2023/05/27 08:27:43;;;;;;;5.72;2.60;;;16.40;99.90;;;;;;5057539;28;20177;-67
2023/05/27 08:30:09;;;;;;;6.95;2.65;;;16.40;99.90;;;;;;5057463;28;20188;-67
2023/05/27 08:32:35;;;;;;;4.97;2.60;;;16.50;99.90;;;;;;5056916;28;20276;-67
2023/05/27 08:35:06;;;;;;;6.95;2.90;;;16.60;99.90;;;;;;5057343;28;20181;-67
2023/05/27 08:37:32;;;;;;;6.97;2.70;;;16.70;99.90;;;;;;5057241;28;20169;-67
2023/05/27 08:40:06;;;;;;;6.03;2.60;;;16.80;99.90;;;;;;5057217;28;20296;-67
2023/05/27 08:42:34;;;;;;;4.90;2.35;;;16.90;99.90;;;;;;5057656;28;20185;-67
2023/05/27 08:45:03;;;;;;;4.05;2.20;;;17.00;99.90;;;;;;5057239;28;20274;-66
2023/05/27 08:47:31;;;;;;;6.35;2.80;;;17.10;99.90;;;;;;5057344;28;20181;-66
2023/05/27 08:49:59;;;;;;;5.35;2.50;;;17.20;99.90;;;;;;5056694;28;20205;-67
2023/05/27 08:52:28;;;;;;;7.22;2.33;;;17.30;99.90;;;;;;5053785;28;20178;-64
2023/05/27 08:54:56;;;;;;;7.07;2.33;;;17.40;99.90;;;;;;5055189;28;20194;-67
2023/05/27 08:57:29;;;;;;;4.85;2.50;;;17.50;99.90;;;;;;5056978;28;20173;-67
2023/05/27 08:59:54;;;;;;;5.15;2.33;;;17.60;99.90;;;;;;5055783;28;20205;-66
2023/05/27 09:02:21;;;;;;;8.32;4.43;;;17.70;99.90;;;;;;5040590;28;20280;-68
2023/05/27 09:04:47;;;;;;;6.32;3.20;;;17.90;99.90;;;;;;5056767;28;20243;-66
2023/05/27 09:07:15;;;;;;;5.13;2.72;;;18.00;99.90;;;;;;5044034;28;20193;-67
2023/05/27 09:09:59;;;;;;;6.15;2.53;;;18.10;99.90;;;;;;5042809;28;20201;-65
2023/05/27 09:12:26;;;;;;;5.30;2.60;;;18.20;99.90;;;;;;5056788;28;20180;-66
2023/05/27 09:14:53;;;;;;;6.53;2.78;;;18.40;99.90;;;;;;5056664;28;20193;-67
2023/05/27 09:17:21;;;;;;;6.95;2.65;;;18.40;99.90;;;;;;5056472;28;20181;-67
2023/05/27 09:19:47;;;;;;;7.28;2.33;;;18.50;99.90;;;;;;5056750;28;20184;-65
2023/05/27 09:22:25;;;;;;;6.82;2.60;;;18.60;99.90;;;;;;5056492;28;20272;-66
2023/05/27 09:24:54;;;;;;;5.25;2.35;;;18.70;99.90;;;;;;5056663;28;20177;-67
2023/05/27 09:27:31;;;;;;;6.75;2.53;;;18.80;99.90;;;;;;5056943;28;20205;-67
2023/05/27 09:30:06;;;;;;;6.85;2.67;;;18.90;99.90;;;;;;5050228;28;20208;-67
2023/05/27 09:32:32;;;;;;;6.28;3.33;;;19.10;99.90;;;;;;5052755;28;20406;-67
2023/05/27 09:35:04;;;;;;;7.93;2.60;;;19.20;99.90;;;;;;5036588;28;20177;-67
2023/05/27 09:37:34;;;;;;;6.03;2.67;;;19.20;99.90;;;;;;5044527;28;20202;-66
2023/05/27 09:40:08;;;;;;;5.63;2.53;;;19.30;99.90;;;;;;5056384;28;20177;-67
2023/05/27 09:42:50;;;;;;;5.03;2.13;;;19.40;99.90;;;;;;5056452;28;20205;-67
2023/05/27 09:45:21;;;;;;;5.68;2.63;;;19.60;99.90;;;;;;5056566;28;20219;-67
2023/05/27 09:47:48;;;;;;;5.55;2.78;;;19.70;99.90;;;;;;5054735;28;20204;-67
2023/05/27 09:50:17;;;;;;;4.68;2.40;;;19.80;99.90;;;;;;5055572;28;20220;-67
2023/05/27 09:52:44;;;;;;;4.40;2.38;;;19.90;99.90;;;;;;5056192;28;20197;-67
2023/05/27 09:55:12;;;;;;;6.20;2.55;;;20.00;99.90;;;;;;5055804;28;20188;-67
2023/05/27 09:57:38;;;;;;;4.30;2.35;;;20.10;99.90;;;;;;5056089;28;20177;-67
2023/05/27 10:00:12;;;;;;;6.25;2.95;;;20.20;99.90;;;;;;5055875;28;20193;-67
2023/05/27 10:03:06;;;;;;;6.50;2.67;;;20.30;99.90;;;;;;5055858;28;20216;-67
2023/05/27 10:05:33;;;;;;;5.32;2.60;;;20.40;99.90;;;;;;5055683;28;20181;-68
2023/05/27 10:08:01;;;;;;;4.10;2.22;;;20.50;99.90;;;;;;5052181;28;20185;-67
2023/05/27 10:10:28;;;;;;;6.80;2.50;;;20.60;99.90;;;;;;5051962;28;20385;-67
2023/05/27 10:12:55;;;;;;;5.28;2.35;;;20.80;99.90;;;;;;5055422;28;20274;-67
2023/05/27 10:15:32;;;;;;;4.70;2.30;;;20.80;99.90;;;;;;5055370;28;20231;-68
2023/05/27 10:18:09;;;;;;;7.18;2.30;;;21.00;99.90;;;;;;5055756;28;20204;-66
2023/05/27 10:20:37;;;;;;;5.07;2.15;;;21.10;99.10;;;;;;5039225;28;20211;-68
2023/05/27 10:23:11;;;;;;;4.72;2.22;;;21.20;99.90;;;;;;5055480;28;20186;-67
2023/05/27 10:25:51;;;;;;;5.15;2.38;;;21.30;99.40;;;;;;5047023;28;20173;-67
2023/05/27 10:28:31;;;;;;;5.07;2.33;;;21.40;99.50;;;;;;5049033;28;20193;-67
2023/05/27 10:31:30;;;;;;;5.30;2.40;;;21.60;99.10;;;;;;5055581;28;20201;-68
2023/05/27 10:33:59;;;;;;;5.53;2.38;;;21.80;99.00;;;;;;5053618;28;20179;-66
2023/05/27 10:36:31;;;;;;;6.43;2.13;;;22.20;99.60;;;;;;5051957;28;20272;-67
2023/05/27 10:39:18;;;;;;;5.32;2.42;;;22.50;98.90;;;;;;5038331;28;20176;-67
2023/05/27 10:41:57;;;;;;;4.47;2.45;;;22.80;96.80;;;;;;5054923;28;20182;-67
2023/05/27 10:44:32;;;;;;;4.57;2.28;;;23.10;96.50;;;;;;5054960;28;20177;-67
2023/05/27 10:47:14;;;;;;;5.32;2.42;;;23.40;97.60;;;;;;5054209;28;20277;-65
2023/05/27 10:49:45;;;;;;;4.10;2.33;;;23.60;96.20;;;;;;5055011;28;20201;-65
2023/05/27 10:52:12;;;;;;;3.85;2.15;;;23.90;97.70;;;;;;5037459;28;20206;-65
2023/05/27 10:54:45;;;;;;;5.88;2.20;;;24.10;97.40;;;;;;5053407;28;20200;-66
2023/05/27 10:57:13;;;;;;;5.15;2.33;;;24.40;96.80;;;;;;5054833;28;20197;-66
2023/05/27 10:59:52;;;;;;;6.55;2.50;;;24.60;96.70;;;;;;5051848;28;20186;-66
2023/05/27 11:02:19;;;;;;;5.13;2.17;;;24.80;95.40;;;;;;5054303;28;20252;-66
2023/05/27 11:04:48;;;;;;;3.35;1.95;;;24.90;95.30;;;;;;5054255;28;20181;-66
2023/05/27 11:07:18;;;;;;;4.55;2.22;;;25.10;95.20;;;;;;5054634;28;20211;-65
2023/05/27 11:09:53;;;;;;;7.80;3.60;;;25.20;93.40;;;;;;5054377;28;20219;-67
2023/05/27 11:12:27;;;;;;;5.35;2.50;;;25.30;92.40;;;;;;5053980;28;20239;-68
2023/05/27 11:14:54;;;;;;;6.22;2.28;;;25.50;92.00;;;;;;5053825;28;20313;-65
2023/05/27 11:17:21;;;;;;;4.07;2.20;;;25.60;92.20;;;;;;5054190;28;20201;-65
2023/05/27 11:19:46;;;;;;;4.40;2.22;;;25.70;92.10;;;;;;5055144;28;20207;-66
2023/05/27 11:22:16;;;;;;;3.75;2.10;;;25.80;91.20;;;;;;5054428;28;20228;-66
2023/05/27 11:24:43;;;;;;;3.80;2.03;;;25.90;89.20;;;;;;5054096;28;20177;-66
2023/05/27 11:27:10;;;;;;;4.50;2.30;;;26.00;86.40;;;;;;5045155;28;20228;-66
2023/05/27 11:29:49;;;;;;;5.00;2.03;;;26.10;85.90;;;;;;5054442;28;20204;-65
2023/05/27 11:32:21;;;;;;;3.08;1.83;;;26.20;85.10;;;;;;5054696;28;20173;-67
2023/05/27 11:34:49;;;;;;;3.28;1.85;;;26.20;81.70;;;;;;5054081;28;20177;-67
2023/05/27 11:37:17;;;;;;;3.20;1.88;;;26.30;83.10;;;;;;5054016;28;20256;-66
2023/05/27 11:39:52;;;;;;;5.22;2.67;;;26.40;80.10;;;;;;5054174;28;20205;-66
2023/05/27 11:42:27;;;;;;;5.57;2.72;;;26.50;76.60;;;;;;5040639;28;20295;-66
2023/05/27 11:44:54;;;;;;;5.18;2.53;;;26.60;77.40;;;;;;5044115;28;20228;-66
2023/05/27 11:47:21;;;;;;;4.25;2.13;;;26.70;79.40;;;;;;5054811;28;20185;-67
2023/05/27 11:49:50;;;;;;;4.20;2.25;;;26.70;79.20;;;;;;5042860;28;20204;-67
2023/05/27 11:52:16;;;;;;;5.28;2.45;;;26.80;77.60;;;;;;5054127;28;20189;-67
2023/05/27 11:54:41;;;;;;;4.15;2.33;;;26.90;76.90;;;;;;5057813;28;20201;-67
2023/05/27 11:57:12;;;;;;;5.43;2.75;;;27.00;75.70;;;;;;5058285;28;20177;-68
2023/05/27 11:59:40;;;;;;;3.40;1.90;;;27.20;72.10;;;;;;5058269;28;20217;-69
2023/05/27 12:02:06;;;;;;;3.60;1.95;;;27.30;72.30;;;;;;5057690;28;20173;-68
2023/05/27 12:04:32;;;;;;;3.00;2.22;;;27.40;72.70;;;;;;5058407;28;20244;-68
2023/05/27 12:07:00;;;;;;;3.80;1.90;;;27.50;73.10;;;;;;5057685;28;20264;-67
2023/05/27 12:09:27;;;;;;;4.18;2.10;;;27.60;71.70;;;;;;5067233;28;20235;-68
2023/05/27 12:11:55;;;;;;;3.75;2.00;;;27.70;71.50;;;;;;5057279;28;20206;-68
2023/05/27 12:14:22;;;;;;;4.97;2.20;;;27.80;71.10;;;;;;5057692;28;20173;-69
2023/05/27 12:16:47;;;;;;;4.57;2.05;;;27.90;70.30;;;;;;5056892;28;20230;-68
2023/05/27 12:19:13;;;;;;;5.13;1.90;;;28.00;70.00;;;;;;5057983;28;20181;-68
2023/05/27 12:21:39;;;;;;;5.43;2.20;;;28.10;69.80;;;;;;5057287;28;20245;-68
2023/05/27 12:24:05;;;;;;;3.78;2.22;;;28.20;69.50;;;;;;5057383;28;20184;-65
2023/05/27 12:26:33;;;;;;;3.88;2.20;;;28.20;67.20;;;;;;5057070;28;20208;-68
2023/05/27 12:28:58;;;;;;;3.35;2.15;;;28.30;66.70;;;;;;5057522;28;20523;-67
2023/05/27 12:31:25;;;;;;;5.78;2.20;;;28.40;66.30;;;;;;5057311;28;20196;-67
2023/05/27 12:33:52;;;;;;;5.25;2.28;;;28.40;65.70;;;;;;5057212;28;20176;-67
2023/05/27 12:36:19;;;;;;;4.65;2.60;;;28.50;65.10;;;;;;5056911;28;20173;-68
2023/05/27 12:38:44;;;;;;;5.05;2.40;;;28.60;64.20;;;;;;5042602;28;20178;-67
2023/05/27 12:41:13;;;;;;;4.35;2.40;;;28.60;64.20;;;;;;5057307;28;20195;-67
2023/05/27 12:43:38;;;;;;;5.35;2.22;;;28.70;64.20;;;;;;5057415;28;20212;-68
2023/05/27 12:46:06;;;;;;;3.63;2.20;;;28.80;64.10;;;;;;5055035;28;20203;-65
2023/05/27 12:48:32;;;;;;;3.35;2.20;;;28.90;62.30;;;;;;5054880;28;20283;-68
2023/05/27 12:50:57;;;;;;;3.35;1.95;;;28.90;61.90;;;;;;5056252;28;20291;-67
2023/05/27 12:53:23;;;;;;;3.30;1.85;;;28.90;59.60;;;;;;5056766;28;20489;-66